Time;durP1;ratioP1;P1;durP2;ratioP2;P2;SDS_P1;SDS_P2;PMS_P1;PMS_P2;Temp;Humidity;BMP_temperature;BMP_pressure;BME280_temperature;BME280_humidity;BME280_pressure;Samples;Min_cycle;Max_cycle;Signal;HPM_P1;HPM_P2
2022/05/03 00:00:46;;;;;;;5.43;4.93;;;7.10;99.90;;;;;;5046442;28;20131;-62
2022/05/03 00:03:28;;;;;;;7.28;4.93;;;7.00;99.90;;;;;;5047346;28;20048;-62
2022/05/03 00:05:59;;;;;;;5.05;4.57;;;7.00;99.90;;;;;;5047628;28;20402;-63
2022/05/03 00:08:38;;;;;;;5.70;5.13;;;6.90;99.90;;;;;;5047065;28;20045;-62
2022/05/03 00:11:16;;;;;;;4.88;4.38;;;7.00;99.90;;;;;;5047064;28;20053;-63
2022/05/03 00:14:10;;;;;;;4.82;4.30;;;6.90;99.90;;;;;;5047093;28;20122;-62
2022/05/03 00:16:37;;;;;;;4.60;3.90;;;6.90;99.90;;;;;;5057636;28;20058;-62
2022/05/03 00:19:07;;;;;;;3.67;3.38;;;6.90;99.90;;;;;;5046541;28;20052;-65
2022/05/03 00:21:38;;;;;;;3.65;3.35;;;6.80;99.90;;;;;;5056608;28;20040;-62
2022/05/03 00:24:05;;;;;;;3.75;3.40;;;6.70;99.90;;;;;;5048578;28;20083;-61
2022/05/03 00:26:31;;;;;;;3.28;3.08;;;6.70;99.90;;;;;;5046508;28;20045;-62
2022/05/03 00:28:58;;;;;;;4.00;3.20;;;6.70;99.90;;;;;;5046390;28;20041;-66
2022/05/03 00:31:25;;;;;;;4.13;3.83;;;6.60;99.90;;;;;;5047258;28;20120;-62
2022/05/03 00:33:53;;;;;;;3.25;2.95;;;6.60;99.90;;;;;;5047096;28;20056;-61
2022/05/03 00:36:19;;;;;;;3.83;3.53;;;6.60;99.90;;;;;;5045413;28;20041;-60
2022/05/03 00:38:44;;;;;;;4.13;3.67;;;6.50;99.90;;;;;;5046454;28;20068;-62
2022/05/03 00:41:16;;;;;;;4.55;3.83;;;6.40;99.90;;;;;;5046205;28;20124;-62
2022/05/03 00:44:01;;;;;;;4.45;4.05;;;6.40;99.90;;;;;;5044629;28;20060;-63
2022/05/03 00:46:34;;;;;;;4.35;3.95;;;6.40;99.90;;;;;;5046882;28;20164;-63
2022/05/03 00:49:21;;;;;;;4.80;4.25;;;6.40;99.90;;;;;;5045823;28;20587;-62
2022/05/03 00:52:10;;;;;;;6.32;4.35;;;6.40;99.90;;;;;;5045664;28;20053;-65
2022/05/03 00:55:01;;;;;;;4.55;4.15;;;6.40;99.90;;;;;;5047095;28;20052;-61
2022/05/03 00:57:56;;;;;;;4.15;3.80;;;6.30;99.90;;;;;;5046212;28;20053;-63
2022/05/03 01:00:24;;;;;;;3.50;3.20;;;6.30;99.90;;;;;;5046415;28;20045;-63
2022/05/03 01:02:55;;;;;;;2.60;2.40;;;6.20;99.90;;;;;;5046632;28;20048;-63
2022/05/03 01:05:28;;;;;;;3.58;3.03;;;6.20;99.90;;;;;;5045211;28;20085;-62
2022/05/03 01:08:02;;;;;;;;;;;7.40;99.90;;;;;;5047175;28;20124;-62
2022/05/03 01:10:34;;;;;;;3.15;2.85;;;6.10;99.90;;;;;;5045219;28;19925;-67
2022/05/03 01:13:29;;;;;;;3.10;2.80;;;6.00;99.90;;;;;;5045118;28;20056;-64
2022/05/03 01:16:19;;;;;;;2.88;2.67;;;5.90;99.90;;;;;;5046424;28;20084;-62
2022/05/03 01:18:56;;;;;;;3.17;2.92;;;5.90;99.90;;;;;;5045143;28;20422;-62
2022/05/03 01:21:55;;;;;;;3.83;3.25;;;5.90;99.90;;;;;;5045716;28;20052;-61
2022/05/03 01:24:30;;;;;;;3.83;3.35;;;5.90;99.90;;;;;;5045930;28;20045;-62
2022/05/03 01:27:15;;;;;;;3.90;3.60;;;5.80;99.90;;;;;;5045786;28;20132;-64
2022/05/03 01:29:45;;;;;;;3.45;3.10;;;5.80;99.90;;;;;;5045832;28;20045;-61
2022/05/03 01:32:15;;;;;;;3.67;3.38;;;5.80;99.90;;;;;;5044706;28;20052;-61
2022/05/03 01:34:44;;;;;;;3.55;3.25;;;5.70;99.90;;;;;;5045723;28;20052;-64
2022/05/03 01:37:36;;;;;;;4.22;3.38;;;5.70;99.90;;;;;;5045318;28;20045;-62
2022/05/03 01:40:07;;;;;;;3.63;3.22;;;5.70;99.90;;;;;;5044864;28;20052;-62
2022/05/03 01:42:50;;;;;;;3.47;3.17;;;5.60;99.90;;;;;;5045807;28;20095;-63
2022/05/03 01:45:58;;;;;;;3.50;3.20;;;5.60;99.90;;;;;;5045598;28;20392;-62
2022/05/03 01:50:18;;;;;;;3.40;3.15;;;6.10;99.90;;;;;;5045836;28;20076;-62
2022/05/03 01:51:29;;;;;;;3.57;3.27;;;5.60;99.90;;;;;;5045220;28;20521;-61
2022/05/03 01:54:19;;;;;;;3.97;3.67;;;5.60;99.90;;;;;;5045615;28;20060;-62
2022/05/03 01:57:00;;;;;;;3.13;2.92;;;5.60;99.90;;;;;;5045565;28;20045;-61
2022/05/03 02:00:02;;;;;;;3.63;3.33;;;5.60;99.90;;;;;;5045339;28;20041;-62
2022/05/03 02:02:59;;;;;;;3.90;3.55;;;5.60;99.90;;;;;;5046477;28;20120;-68
2022/05/03 02:05:34;;;;;;;4.47;3.67;;;5.60;99.90;;;;;;5044968;28;20114;-62
2022/05/03 02:08:00;;;;;;;4.30;3.90;;;5.60;99.90;;;;;;5044548;28;20088;-62
2022/05/03 02:11:01;;;;;;;4.90;4.50;;;5.60;99.90;;;;;;5045886;28;20037;-61
2022/05/03 02:16:29;;;;;;;5.93;5.43;;;5.70;99.90;;;;;;5045348;28;20052;-62
2022/05/03 02:19:25;;;;;;;5.80;5.05;;;5.70;99.90;;;;;;5046020;28;20068;-65
2022/05/03 02:22:36;;;;;;;6.82;6.00;;;5.80;99.90;;;;;;5044797;28;20056;-62
2022/05/03 02:25:17;;;;;;;7.03;6.32;;;5.90;99.90;;;;;;5043654;28;20057;-61
2022/05/03 02:27:48;;;;;;;7.90;7.07;;;6.00;99.90;;;;;;5045245;28;20049;-63
2022/05/03 02:30:16;;;;;;;7.65;6.95;;;6.00;99.90;;;;;;5044229;28;20079;-60
2022/05/03 02:32:58;;;;;;;8.48;7.10;;;6.20;99.90;;;;;;5045209;28;20052;-62
2022/05/03 02:35:28;;;;;;;9.82;8.77;;;6.30;99.90;;;;;;5044955;28;20045;-62
2022/05/03 02:37:56;;;;;;;8.85;8.05;;;6.40;99.90;;;;;;5045671;28;20063;-64
2022/05/03 02:40:29;;;;;;;9.07;8.23;;;6.50;99.90;;;;;;5045542;28;20045;-62
2022/05/03 02:42:56;;;;;;;11.68;9.25;;;6.50;99.90;;;;;;5045150;28;20041;-65
2022/05/03 02:45:22;;;;;;;10.40;9.40;;;6.60;99.90;;;;;;5044525;28;20044;-65
2022/05/03 02:48:14;;;;;;;11.75;9.65;;;6.60;99.90;;;;;;5045102;28;20565;-63
2022/05/03 02:50:50;;;;;;;12.52;9.52;;;6.70;99.90;;;;;;5045630;28;20186;-62
2022/05/03 02:53:43;;;;;;;10.00;8.57;;;6.70;99.90;;;;;;5048340;28;20060;-62
2022/05/03 02:56:30;;;;;;;8.38;6.65;;;6.70;99.90;;;;;;5048376;28;20084;-62
2022/05/03 02:59:02;;;;;;;6.53;5.88;;;6.70;99.90;;;;;;5049147;28;20407;-62
2022/05/03 03:01:50;;;;;;;6.63;6.00;;;6.70;99.90;;;;;;5047657;28;20045;-68
2022/05/03 03:04:37;;;;;;;5.93;5.43;;;6.70;99.90;;;;;;5047336;28;20053;-60
2022/05/03 03:07:04;;;;;;;7.30;6.18;;;6.70;99.90;;;;;;5048064;28;20247;-63
2022/05/03 03:09:43;;;;;;;9.68;7.57;;;6.70;99.90;;;;;;5048205;28;20127;-62
2022/05/03 03:12:09;;;;;;;8.90;7.70;;;6.70;99.90;;;;;;5047258;28;20483;-62
2022/05/03 03:14:46;;;;;;;9.25;8.35;;;6.70;99.90;;;;;;5048173;28;20048;-61
2022/05/03 03:17:19;;;;;;;11.20;8.20;;;6.70;99.90;;;;;;5047787;28;20490;-62
2022/05/03 03:20:02;;;;;;;15.43;7.85;;;6.80;99.90;;;;;;5048069;28;20041;-62
2022/05/03 03:22:30;;;;;;;10.18;9.13;;;6.80;99.90;;;;;;5048488;28;20085;-68
2022/05/03 03:24:59;;;;;;;8.93;8.02;;;6.80;99.90;;;;;;5047960;28;20494;-61
2022/05/03 03:27:26;;;;;;;10.45;9.30;;;6.90;99.90;;;;;;5048681;28;20048;-61
2022/05/03 03:29:55;;;;;;;11.30;8.93;;;6.90;99.90;;;;;;5048132;28;20107;-60
2022/05/03 03:32:24;;;;;;;10.93;9.82;;;7.00;99.90;;;;;;5046825;28;20071;-62
2022/05/03 03:34:53;;;;;;;11.50;9.50;;;7.00;99.90;;;;;;5047748;28;20091;-62
2022/05/03 03:37:23;;;;;;;13.38;11.15;;;7.10;99.90;;;;;;5047489;28;20525;-62
2022/05/03 03:39:49;;;;;;;13.93;10.55;;;7.60;99.90;;;;;;5045553;28;20529;-62
2022/05/03 03:42:14;;;;;;;11.35;10.15;;;7.10;99.90;;;;;;5047528;28;20037;-64
2022/05/03 03:44:40;;;;;;;11.98;9.65;;;7.20;99.90;;;;;;5047643;28;20049;-65
2022/05/03 03:47:06;;;;;;;12.48;10.23;;;7.20;99.90;;;;;;5053587;28;20106;-65
2022/05/03 03:49:34;;;;;;;11.48;9.60;;;7.20;99.90;;;;;;5059737;28;20400;-63
2022/05/03 03:52:01;;;;;;;11.15;10.00;;;7.20;99.90;;;;;;5067427;28;20048;-65
2022/05/03 03:54:27;;;;;;;12.27;10.95;;;7.20;99.90;;;;;;5067304;28;20056;-65
2022/05/03 03:56:54;;;;;;;15.90;11.35;;;7.30;99.90;;;;;;5068188;28;20081;-62
2022/05/03 03:59:20;;;;;;;12.15;10.55;;;7.30;99.90;;;;;;5067054;28;20049;-65
2022/05/03 04:01:48;;;;;;;15.35;12.77;;;7.30;99.90;;;;;;5065612;28;20048;-62
2022/05/03 04:04:15;;;;;;;15.15;11.73;;;7.30;99.90;;;;;;5066731;28;20297;-63
2022/05/03 04:06:41;;;;;;;14.88;11.27;;;7.30;99.90;;;;;;5066682;28;20394;-60
2022/05/03 04:09:07;;;;;;;19.92;13.20;;;7.40;99.90;;;;;;5066856;28;20058;-65
2022/05/03 04:11:46;;;;;;;19.02;11.98;;;7.40;99.90;;;;;;5049960;28;20045;-62
2022/05/03 04:14:12;;;;;;;14.07;10.65;;;7.40;99.90;;;;;;5044626;28;20494;-62
2022/05/03 04:16:38;;;;;;;13.90;12.00;;;7.40;99.90;;;;;;5062908;28;20052;-61
2022/05/03 04:19:03;;;;;;;14.65;11.23;;;7.50;99.90;;;;;;5059048;28;20033;-62
2022/05/03 04:21:29;;;;;;;13.82;12.32;;;7.50;99.90;;;;;;5053992;28;20087;-63
2022/05/03 04:23:55;;;;;;;14.82;12.55;;;7.50;99.90;;;;;;5050310;28;20382;-64
2022/05/03 04:26:20;;;;;;;16.73;13.43;;;7.50;99.90;;;;;;5046617;28;20114;-65
2022/05/03 04:28:46;;;;;;;16.63;11.57;;;7.50;99.90;;;;;;5046564;28;20041;-62
2022/05/03 04:31:12;;;;;;;16.52;12.77;;;7.50;99.90;;;;;;5066446;28;20552;-63
2022/05/03 04:33:37;;;;;;;19.17;14.13;;;7.50;99.90;;;;;;5065538;28;20047;-59
2022/05/03 04:36:04;;;;;;;19.30;14.07;;;7.50;99.90;;;;;;5051450;28;20044;-62
2022/05/03 04:38:30;;;;;;;19.98;15.43;;;7.50;99.90;;;;;;5046782;28;20044;-63
2022/05/03 04:41:02;;;;;;;19.80;14.55;;;7.60;99.90;;;;;;5057334;28;20224;-65
2022/05/03 04:43:28;;;;;;;17.88;14.45;;;7.60;99.90;;;;;;5065840;28;20403;-67
2022/05/03 04:45:54;;;;;;;17.90;14.55;;;7.60;99.90;;;;;;5065242;28;20029;-62
2022/05/03 04:48:20;;;;;;;15.45;13.68;;;7.60;99.90;;;;;;5051365;28;20502;-63
2022/05/03 04:50:46;;;;;;;19.02;14.63;;;7.70;99.90;;;;;;5057346;28;20531;-61
2022/05/03 04:53:12;;;;;;;15.98;14.27;;;7.60;99.90;;;;;;5054337;28;20513;-64
2022/05/03 04:55:41;;;;;;;19.08;14.00;;;7.70;99.90;;;;;;5056267;28;20037;-62
2022/05/03 04:58:07;;;;;;;17.48;14.90;;;7.70;99.90;;;;;;5053619;28;20462;-66
2022/05/03 05:00:33;;;;;;;17.83;14.60;;;8.10;99.90;;;;;;5052953;28;20032;-65
2022/05/03 05:02:59;;;;;;;18.45;16.17;;;7.80;99.90;;;;;;5059631;28;20048;-66
2022/05/03 05:05:24;;;;;;;19.08;15.52;;;7.80;99.90;;;;;;5052424;28;20036;-64
2022/05/03 05:07:50;;;;;;;19.17;15.20;;;7.80;99.90;;;;;;5058308;28;20052;-62
2022/05/03 05:10:26;;;;;;;18.75;15.73;;;7.80;99.90;;;;;;5058107;28;20037;-62
2022/05/03 05:12:54;;;;;;;20.05;16.30;;;7.90;99.90;;;;;;5056485;28;20143;-62
2022/05/03 05:15:23;;;;;;;22.85;17.45;;;7.90;99.90;;;;;;5055835;28;20036;-64
2022/05/03 05:17:56;;;;;;;20.00;14.43;;;7.90;99.90;;;;;;5054309;28;20049;-62
2022/05/03 05:20:22;;;;;;;21.17;15.48;;;8.00;99.90;;;;;;5055938;28;20068;-62
2022/05/03 05:22:48;;;;;;;21.67;15.95;;;8.00;99.90;;;;;;5054671;28;20652;-62
2022/05/03 05:25:14;;;;;;;17.73;14.85;;;8.00;99.90;;;;;;5053139;28;20041;-62
2022/05/03 05:27:40;;;;;;;25.88;17.30;;;8.10;99.90;;;;;;5057805;28;20451;-62
2022/05/03 05:30:08;;;;;;;20.95;16.48;;;8.10;99.90;;;;;;5056820;28;20041;-62
2022/05/03 05:32:34;;;;;;;20.05;15.52;;;8.10;99.90;;;;;;5055414;28;20045;-62
2022/05/03 05:34:59;;;;;;;21.25;16.15;;;8.20;99.90;;;;;;5057892;28;20127;-62
2022/05/03 05:37:25;;;;;;;22.13;16.73;;;8.20;99.90;;;;;;5059111;28;20051;-63
2022/05/03 05:39:50;;;;;;;21.30;17.13;;;8.30;99.90;;;;;;5062749;28;20108;-61
2022/05/03 05:42:16;;;;;;;20.08;15.77;;;8.30;99.90;;;;;;5054849;28;20115;-62
2022/05/03 05:44:42;;;;;;;21.40;16.75;;;8.30;99.90;;;;;;5057233;28;20506;-63
2022/05/03 05:47:07;;;;;;;25.25;18.50;;;8.30;99.90;;;;;;5058593;28;20074;-66
2022/05/03 05:49:33;;;;;;;24.23;18.27;;;8.40;99.90;;;;;;5058860;28;20048;-62
2022/05/03 05:53:31;;;;;;;28.88;19.92;;;8.40;99.90;;;;;;5056344;28;20044;-68
2022/05/03 05:54:44;;;;;;;23.85;18.33;;;8.50;99.90;;;;;;5051934;28;20048;-62
2022/05/03 05:57:10;;;;;;;23.65;17.95;;;8.50;99.90;;;;;;5056719;28;20048;-64
2022/05/03 05:59:35;;;;;;;26.85;17.33;;;8.60;99.90;;;;;;5055263;28;20067;-62
2022/05/03 06:02:01;;;;;;;24.65;18.73;;;8.60;99.90;;;;;;5053927;28;20048;-62
2022/05/03 06:04:29;;;;;;;23.23;12.70;;;8.70;99.90;;;;;;5053924;28;20048;-63
2022/05/03 06:06:55;;;;;;;20.60;9.98;;;8.80;99.90;;;;;;5059001;28;20510;-62
2022/05/03 06:09:21;;;;;;;14.55;6.35;;;8.80;99.90;;;;;;5052382;28;20056;-62
2022/05/03 06:11:47;;;;;;;9.48;5.10;;;8.90;99.90;;;;;;5057488;28;20053;-62
2022/05/03 06:14:12;;;;;;;13.13;4.38;;;8.90;99.90;;;;;;5056121;28;20037;-62
2022/05/03 06:16:51;;;;;;;14.52;4.47;;;8.90;99.90;;;;;;5065315;28;20470;-62
2022/05/03 06:19:17;;;;;;;8.95;3.78;;;8.90;99.90;;;;;;5065395;28;20368;-63
2022/05/03 06:21:43;;;;;;;9.15;3.83;;;8.80;99.90;;;;;;5064428;28;20040;-65
2022/05/03 06:24:09;;;;;;;12.23;3.97;;;8.80;99.90;;;;;;5065124;28;20487;-67
2022/05/03 06:26:35;;;;;;;14.70;3.90;;;9.80;99.90;;;;;;5068347;28;20124;-63
2022/05/03 06:29:08;;;;;;;14.30;4.35;;;8.80;99.90;;;;;;5066627;28;20048;-62
2022/05/03 06:31:43;;;;;;;14.30;4.68;;;8.80;99.90;;;;;;5067954;28;20123;-63
2022/05/03 06:34:10;;;;;;;12.95;3.60;;;8.80;99.90;;;;;;5068620;28;20047;-66
2022/05/03 06:36:36;;;;;;;11.45;4.18;;;8.80;99.90;;;;;;5058778;28;20077;-61
2022/05/03 06:39:03;;;;;;;11.65;4.85;;;8.80;99.90;;;;;;5068806;28;20040;-60
2022/05/03 06:41:28;;;;;;;10.10;4.82;;;8.80;99.90;;;;;;5068530;28;20467;-67
2022/05/03 06:43:56;;;;;;;15.23;5.15;;;8.80;99.90;;;;;;5066032;28;20119;-65
2022/05/03 06:46:22;;;;;;;15.10;5.72;;;8.90;99.90;;;;;;5058779;28;20075;-63
2022/05/03 06:48:47;;;;;;;20.17;5.82;;;8.80;99.90;;;;;;5068867;28;20072;-64
2022/05/03 06:51:13;;;;;;;15.75;5.78;;;8.90;99.90;;;;;;5060571;28;20040;-66
2022/05/03 06:53:39;;;;;;;11.27;4.72;;;8.90;99.90;;;;;;5055222;28;20478;-63
2022/05/03 06:56:05;;;;;;;17.67;4.90;;;8.90;99.90;;;;;;5059048;28;20187;-65
2022/05/03 06:58:30;;;;;;;18.17;6.40;;;8.90;99.90;;;;;;5060101;28;20040;-64
2022/05/03 07:00:56;;;;;;;15.65;5.57;;;8.90;99.90;;;;;;5054475;28;20471;-62
2022/05/03 07:03:21;;;;;;;14.45;5.43;;;8.90;99.90;;;;;;5059875;28;20654;-64
2022/05/03 07:05:47;;;;;;;21.25;5.10;;;8.90;99.90;;;;;;5063227;28;20195;-64
2022/05/03 07:08:13;;;;;;;22.58;6.63;;;8.90;99.90;;;;;;5068897;28;20044;-62
2022/05/03 07:10:40;;;;;;;12.98;4.55;;;9.00;99.90;;;;;;5049729;28;20039;-63
2022/05/03 07:13:12;;;;;;;22.55;5.93;;;9.00;99.90;;;;;;5064189;28;20044;-63
2022/05/03 07:15:38;;;;;;;18.60;5.28;;;9.00;99.90;;;;;;5069235;28;20045;-64
2022/05/03 07:23:32;;;;;;;14.48;5.07;;;9.20;99.90;;;;;;5048296;28;20048;-64
2022/05/03 07:25:59;;;;;;;15.40;4.70;;;9.20;99.90;;;;;;5068169;28;20111;-66
2022/05/03 07:28:25;;;;;;;15.23;4.65;;;9.20;99.90;;;;;;5052856;28;20045;-63
2022/05/03 07:30:51;;;;;;;17.95;5.60;;;9.20;99.90;;;;;;5059533;28;20650;-63
2022/05/03 07:33:17;;;;;;;11.13;4.75;;;9.30;99.90;;;;;;5068693;28;20048;-62
2022/05/03 07:35:42;;;;;;;23.00;4.50;;;9.30;99.90;;;;;;5055674;28;20132;-62
2022/05/03 07:38:08;;;;;;;16.65;4.57;;;9.30;99.90;;;;;;5063048;28;20554;-62
2022/05/03 07:40:34;;;;;;;18.25;4.60;;;9.30;99.90;;;;;;5063225;28;20060;-63
2022/05/03 07:43:02;;;;;;;22.83;4.55;;;9.40;99.90;;;;;;5056185;28;20069;-63
2022/05/03 07:45:28;;;;;;;17.63;4.82;;;9.40;99.90;;;;;;5056970;28;20525;-65
2022/05/03 07:47:53;;;;;;;14.57;4.07;;;9.40;99.90;;;;;;5055083;28;20047;-64
2022/05/03 07:50:19;;;;;;;12.02;4.18;;;9.50;99.90;;;;;;5060778;28;20057;-63
2022/05/03 07:52:44;;;;;;;10.88;3.80;;;9.60;99.90;;;;;;5056258;28;20048;-63
2022/05/03 07:55:10;;;;;;;17.02;4.22;;;9.60;99.90;;;;;;5067762;28;20084;-63
2022/05/03 07:57:36;;;;;;;12.25;4.05;;;9.70;99.90;;;;;;5068171;28;20037;-63
2022/05/03 08:00:02;;;;;;;15.43;5.07;;;9.80;99.90;;;;;;5067145;28;20055;-64
2022/05/03 08:02:28;;;;;;;15.82;4.88;;;9.80;99.90;;;;;;5066711;28;20090;-65
2022/05/03 08:04:54;;;;;;;19.35;4.10;;;9.80;99.90;;;;;;5048704;28;20423;-63
2022/05/03 08:07:20;;;;;;;13.38;4.22;;;9.80;99.90;;;;;;5047115;28;20048;-63
2022/05/03 08:09:48;;;;;;;9.88;3.78;;;9.90;99.90;;;;;;5048239;28;20044;-63
2022/05/03 08:12:14;;;;;;;15.15;4.40;;;9.90;99.90;;;;;;5055135;28;20040;-64
2022/05/03 08:14:40;;;;;;;10.60;3.95;;;9.90;99.90;;;;;;5053621;28;20052;-64
2022/05/03 08:17:06;;;;;;;14.63;4.18;;;9.90;99.90;;;;;;5047798;28;20077;-63
2022/05/03 08:19:32;;;;;;;10.55;3.55;;;9.80;99.90;;;;;;5047922;28;20044;-63
2022/05/03 08:21:59;;;;;;;10.85;3.80;;;9.90;99.90;;;;;;5048394;28;20040;-66
2022/05/03 08:24:25;;;;;;;21.00;4.72;;;9.90;99.90;;;;;;5048344;28;20041;-63
2022/05/03 08:26:51;;;;;;;11.27;3.60;;;9.90;99.90;;;;;;5047022;28;20052;-63
2022/05/03 08:29:16;;;;;;;8.38;3.35;;;9.90;99.90;;;;;;5047379;28;20048;-63
2022/05/03 08:31:42;;;;;;;12.90;3.80;;;8.90;99.90;;;;;;5047683;28;20041;-63
2022/05/03 08:34:09;;;;;;;10.30;3.92;;;10.00;99.90;;;;;;5046581;28;20485;-64
2022/05/03 08:36:35;;;;;;;8.65;2.88;;;10.00;99.90;;;;;;5047751;28;20072;-63
2022/05/03 08:42:06;;;;;;;9.10;2.78;;;10.10;99.90;;;;;;5046835;28;20080;-63
2022/05/03 08:44:33;;;;;;;16.05;4.03;;;10.20;99.90;;;;;;5047691;28;20114;-64
2022/05/03 08:47:02;;;;;;;13.13;2.80;;;10.20;99.90;;;;;;5047120;28;20071;-66
2022/05/03 08:49:44;;;;;;;20.35;3.72;;;10.30;99.90;;;;;;5046330;28;20151;-67
2022/05/03 08:52:11;;;;;;;8.80;2.63;;;10.40;99.90;;;;;;5047088;28;20496;-63
2022/05/03 08:54:37;;;;;;;13.35;3.25;;;10.50;99.90;;;;;;5047139;28;20446;-65
2022/05/03 08:57:07;;;;;;;14.73;3.42;;;10.50;99.90;;;;;;5051970;28;20036;-64
2022/05/03 08:59:37;;;;;;;7.75;2.65;;;10.60;99.90;;;;;;5061687;28;20135;-63
2022/05/03 09:02:06;;;;;;;15.40;2.80;;;10.60;99.90;;;;;;5053967;28;20115;-63
2022/05/03 09:04:32;;;;;;;11.23;2.78;;;10.80;99.90;;;;;;5056030;28;20045;-64
2022/05/03 09:07:22;;;;;;;14.90;3.20;;;10.90;99.90;;;;;;5062858;28;20045;-66
2022/05/03 09:09:49;;;;;;;7.97;2.58;;;10.90;99.90;;;;;;5063607;28;20049;-63
2022/05/03 09:12:29;;;;;;;8.43;2.53;;;10.90;99.90;;;;;;5064593;28;20574;-64
2022/05/03 09:15:01;;;;;;;5.78;1.77;;;10.90;99.90;;;;;;5060759;28;20072;-63
2022/05/03 09:17:38;;;;;;;6.30;2.03;;;11.00;99.90;;;;;;5063357;28;20176;-64
2022/05/03 09:26:18;;;;;;;9.05;2.42;;;11.40;99.90;;;;;;5054041;28;20415;-63
2022/05/03 09:28:55;;;;;;;4.25;1.95;;;11.50;99.90;;;;;;5050227;28;20044;-63
2022/05/03 09:31:35;;;;;;;5.28;2.08;;;11.50;99.90;;;;;;5047592;28;20052;-64
2022/05/03 09:34:25;;;;;;;14.63;2.40;;;11.60;99.90;;;;;;5051866;28;20044;-64
2022/05/03 09:37:00;;;;;;;5.00;2.20;;;11.60;99.90;;;;;;5060413;28;20054;-63
2022/05/03 09:39:31;;;;;;;7.97;3.55;;;11.70;99.90;;;;;;5059489;28;20068;-64
2022/05/03 09:42:17;;;;;;;9.18;2.15;;;11.80;99.90;;;;;;5064213;28;20126;-63
2022/05/03 09:45:04;;;;;;;7.18;1.90;;;11.90;99.90;;;;;;5065492;28;20040;-63
2022/05/03 09:47:33;;;;;;;9.20;2.00;;;12.00;99.90;;;;;;5052653;28;20049;-64
2022/05/03 09:50:00;;;;;;;10.02;2.05;;;12.20;99.90;;;;;;5050095;28;20399;-66
2022/05/03 09:52:38;;;;;;;9.85;1.52;;;12.30;99.90;;;;;;5048640;28;20414;-63
2022/05/03 09:55:07;;;;;;;6.40;2.40;;;12.30;99.90;;;;;;5055795;28;20139;-64
2022/05/03 09:57:42;;;;;;;7.65;2.20;;;12.30;99.90;;;;;;5062988;28;20263;-63
2022/05/03 10:00:10;;;;;;;4.95;2.05;;;12.30;99.90;;;;;;5047428;28;20045;-63
2022/05/03 10:02:40;;;;;;;11.18;2.63;;;12.30;99.90;;;;;;5059998;28;20097;-64
2022/05/03 10:05:07;;;;;;;6.10;2.15;;;12.40;99.90;;;;;;5068288;28;20064;-63
2022/05/03 10:07:34;;;;;;;11.43;2.17;;;12.50;99.90;;;;;;5067806;28;20048;-63
2022/05/03 10:10:06;;;;;;;7.05;1.98;;;12.50;99.90;;;;;;5066958;28;20371;-64
2022/05/03 10:12:32;;;;;;;9.57;1.83;;;12.60;99.90;;;;;;5068628;28;20476;-63
2022/05/03 10:14:58;;;;;;;8.90;2.17;;;12.70;99.90;;;;;;5067482;28;20056;-65
2022/05/03 10:20:39;;;;;;;4.03;1.30;;;12.80;99.90;;;;;;5065610;28;20330;-63
2022/05/03 10:23:19;;;;;;;2.15;1.27;;;12.80;99.90;;;;;;5062369;28;20033;-64
2022/05/03 10:25:45;;;;;;;5.75;1.75;;;12.70;99.90;;;;;;5059706;28;20048;-63
2022/05/03 10:28:10;;;;;;;6.95;1.77;;;12.60;99.90;;;;;;5064532;28;20040;-64
2022/05/03 10:30:38;;;;;;;5.85;1.65;;;12.70;99.90;;;;;;5066234;28;20322;-64
2022/05/03 10:33:28;;;;;;;5.25;1.48;;;12.70;99.90;;;;;;5058080;28;20128;-60
2022/05/03 10:35:54;;;;;;;5.43;1.52;;;12.80;99.90;;;;;;5062110;28;20056;-61
2022/05/03 10:38:39;;;;;;;3.28;1.85;;;12.80;99.90;;;;;;5071282;28;20050;-61
2022/05/03 10:41:08;;;;;;;7.55;2.20;;;12.80;99.90;;;;;;5052617;28;20048;-64
2022/05/03 10:43:35;;;;;;;4.20;1.27;;;12.90;99.90;;;;;;5068819;28;20296;-64
2022/05/03 10:46:12;;;;;;;4.85;1.67;;;12.80;99.90;;;;;;5050234;28;20029;-63
2022/05/03 10:48:41;;;;;;;6.07;1.83;;;12.90;99.90;;;;;;5064295;28;20126;-66
2022/05/03 10:51:09;;;;;;;5.18;1.40;;;13.00;99.90;;;;;;5054905;28;20140;-65
2022/05/03 10:53:37;;;;;;;6.45;1.52;;;13.10;99.90;;;;;;5065177;28;20048;-64
2022/05/03 10:56:16;;;;;;;6.95;1.95;;;13.00;99.90;;;;;;5068336;28;20087;-66
2022/05/03 10:58:43;;;;;;;6.40;1.60;;;13.00;99.90;;;;;;5065682;28;20056;-64
2022/05/03 11:01:23;;;;;;;5.85;1.90;;;13.00;99.90;;;;;;5054462;28;20041;-64
2022/05/03 11:03:52;;;;;;;4.82;1.63;;;13.00;99.90;;;;;;5066909;28;20078;-65
2022/05/03 11:06:26;;;;;;;4.05;1.23;;;13.00;99.90;;;;;;5057316;28;20168;-64
2022/05/03 11:09:08;;;;;;;2.65;1.10;;;13.10;99.90;;;;;;5058040;28;20454;-63
2022/05/03 11:11:41;;;;;;;5.78;1.48;;;13.10;99.90;;;;;;5056906;28;20150;-64
2022/05/03 11:14:15;;;;;;;8.05;1.55;;;13.20;99.90;;;;;;5060921;28;20049;-64
2022/05/03 11:16:42;;;;;;;3.67;1.27;;;13.20;99.90;;;;;;5072309;28;20053;-63
2022/05/03 11:19:18;;;;;;;5.28;1.77;;;13.10;99.90;;;;;;5053467;28;20053;-64
2022/05/03 11:21:47;;;;;;;5.88;2.05;;;13.10;99.90;;;;;;5064496;28;20044;-64
2022/05/03 11:24:17;;;;;;;4.75;1.95;;;13.20;99.90;;;;;;5058062;28;20056;-63
2022/05/03 11:26:43;;;;;;;8.40;1.65;;;13.20;99.90;;;;;;5063410;28;20115;-64
2022/05/03 11:29:11;;;;;;;4.30;1.77;;;13.20;99.90;;;;;;5063961;28;20483;-63
2022/05/03 11:31:36;;;;;;;4.80;1.42;;;13.30;99.90;;;;;;5052887;28;20445;-63
2022/05/03 11:34:06;;;;;;;6.20;2.28;;;13.30;99.90;;;;;;5062626;28;20044;-64
2022/05/03 11:36:32;;;;;;;3.78;1.35;;;13.40;99.90;;;;;;5065785;28;20365;-63
2022/05/03 11:39:00;;;;;;;6.10;1.83;;;13.40;99.90;;;;;;5056337;28;20045;-64
2022/05/03 11:41:28;;;;;;;7.05;1.90;;;13.30;99.90;;;;;;5063175;28;20036;-63
2022/05/03 11:43:54;;;;;;;6.68;1.80;;;13.30;99.90;;;;;;5056814;28;20052;-63
2022/05/03 11:46:21;;;;;;;8.63;1.25;;;13.40;99.90;;;;;;5057976;28;20045;-63
2022/05/03 11:48:52;;;;;;;6.05;1.67;;;13.60;99.90;;;;;;5066863;28;20068;-64
2022/05/03 11:57:04;;;;;;;8.38;1.80;;;13.50;97.90;;;;;;5063104;28;20048;-63
2022/05/03 11:59:30;;;;;;;4.75;1.70;;;13.50;98.50;;;;;;5057421;28;20097;-64
2022/05/03 12:02:34;;;;;;;4.15;1.70;;;13.50;98.40;;;;;;5057225;28;20040;-64
2022/05/03 12:05:18;;;;;;;5.90;1.40;;;13.60;96.70;;;;;;4983467;28;20054;-61
2022/05/03 12:07:49;;;;;;;2.97;1.45;;;13.50;97.40;;;;;;5041952;28;20053;-61
2022/05/03 12:10:34;;;;;;;8.93;2.20;;;13.60;98.40;;;;;;5046499;28;20037;-62
2022/05/03 12:13:28;;;;;;;3.72;1.42;;;13.80;98.90;;;;;;5046883;28;20090;-61
2022/05/03 12:15:56;;;;;;;4.65;1.33;;;14.00;97.20;;;;;;5042999;28;20564;-62
2022/05/03 12:18:29;;;;;;;8.45;2.17;;;14.30;96.40;;;;;;5047386;28;20582;-62
2022/05/03 12:20:59;;;;;;;4.20;1.58;;;14.40;95.60;;;;;;5047712;28;20041;-62
2022/05/03 12:23:37;;;;;;;6.55;1.50;;;14.40;94.90;;;;;;5047348;28;20573;-62
2022/05/03 12:26:22;;;;;;;9.48;2.22;;;14.30;93.60;;;;;;5046802;28;20052;-62
2022/05/03 12:28:51;;;;;;;8.20;1.80;;;14.30;91.70;;;;;;5046966;28;20286;-62
2022/05/03 12:31:19;;;;;;;5.75;1.40;;;14.30;92.40;;;;;;5047619;28;20135;-62
2022/05/03 12:33:53;;;;;;;5.47;1.60;;;14.30;93.70;;;;;;5047005;28;20056;-62
2022/05/03 12:36:36;;;;;;;9.48;2.15;;;14.50;95.00;;;;;;5047384;28;20049;-62
2022/05/03 12:39:23;;;;;;;5.80;1.80;;;14.70;90.50;;;;;;5047343;28;20128;-62
2022/05/03 12:42:01;;;;;;;4.00;1.65;;;14.40;86.30;;;;;;5047321;28;20075;-62
2022/05/03 12:44:28;;;;;;;7.68;1.83;;;14.00;88.00;;;;;;5048005;28;20474;-62
2022/05/03 12:47:02;;;;;;;5.43;1.63;;;14.00;89.90;;;;;;5048278;28;20045;-62
2022/05/03 12:49:28;;;;;;;3.97;1.95;;;14.10;90.20;;;;;;5048112;28;20092;-64
2022/05/03 12:51:54;;;;;;;5.13;1.35;;;14.10;90.20;;;;;;5048251;28;20044;-63
2022/05/03 12:54:19;;;;;;;6.60;1.90;;;14.20;90.30;;;;;;5047100;28;20048;-62
2022/05/03 12:59:29;;;;;;;7.85;1.80;;;14.10;88.40;;;;;;5047254;28;20468;-62
2022/05/03 13:01:56;;;;;;;8.60;1.95;;;14.10;90.40;;;;;;5047135;28;20051;-63
2022/05/03 13:04:23;;;;;;;6.43;2.03;;;14.30;90.80;;;;;;5046943;28;20051;-63
2022/05/03 13:06:49;;;;;;;3.33;1.58;;;14.40;90.90;;;;;;5047195;28;20057;-62
2022/05/03 13:09:16;;;;;;;4.70;1.60;;;14.40;89.30;;;;;;5046067;28;20041;-62
2022/05/03 13:11:43;;;;;;;4.07;1.40;;;14.40;87.60;;;;;;5046779;28;20549;-62
2022/05/03 13:14:09;;;;;;;10.88;2.08;;;14.50;88.50;;;;;;5046663;28;20127;-63
2022/05/03 13:16:35;;;;;;;7.75;2.53;;;14.50;87.00;;;;;;5046262;28;20052;-63
2022/05/03 13:19:02;;;;;;;6.35;1.90;;;14.50;84.90;;;;;;5046884;28;20045;-61
2022/05/03 13:21:28;;;;;;;3.53;1.52;;;14.50;86.70;;;;;;5047229;28;20228;-64
2022/05/03 13:23:54;;;;;;;7.80;1.95;;;13.60;86.00;;;;;;5046857;28;20076;-63
2022/05/03 13:26:20;;;;;;;5.18;1.58;;;14.70;87.20;;;;;;5046494;28;20203;-63
2022/05/03 13:28:46;;;;;;;5.03;2.03;;;14.80;84.50;;;;;;5046865;28;20041;-62
2022/05/03 13:31:14;;;;;;;8.35;2.33;;;14.90;84.50;;;;;;5045745;28;20552;-62
2022/05/03 13:33:40;;;;;;;6.63;1.77;;;14.30;80.70;;;;;;5046575;28;20183;-62
2022/05/03 13:41:35;;;;;;;7.18;2.03;;;14.30;82.40;;;;;;5047416;28;20049;-61
2022/05/03 13:44:02;;;;;;;5.97;2.80;;;14.10;82.40;;;;;;5045885;28;20124;-62